Waverly, Louisiana
Current Conditions -  °F | °C
As of 11:55 AM on Saturday 20 Dec 2014 (Local Time) from KBQP Reporting Station
Clear Clear  
Wind Chill: 53°   Ceiling: Unl
Heat Index: 53°   Visibility: 10mi
Dew Point: 40°   Wind: 5mph
Humidity: 61%   Direction: 10°N
Pressure: 30.23"   Gusts: NA
Location:  32.4445°N, 91.5289°W
Report Text: KBQP 201755Z AUTO 01004KT 10SM CLR 12/04 A3023 RMK AO2 T01180044 10120 20030
Loading
Personal Weather Stations






























Interactive Weather Map New forecast layout! Learn more

10-Day Weather Forecast

Advertisements
Track Severe Weather on mobile